Time;durP1;ratioP1;P1;durP2;ratioP2;P2;SDS_P1;SDS_P2;PMS_P1;PMS_P2;Temp;Humidity;BMP_temperature;BMP_pressure;BME280_temperature;BME280_humidity;BME280_pressure;Samples;Min_cycle;Max_cycle;Signal;HPM_P1;HPM_P2
2024/04/20 00:01:21;;;;;;;3.05;0.00;;;6.20;99.90;;;;;;5531624;26;20333;-77
2024/04/20 00:03:50;;;;;;;4.00;0.10;;;;;;;;;;5531800;26;19997;-78
2024/04/20 00:06:16;;;;;;;5.97;0.00;;;6.20;99.90;;;;;;5530925;26;19997;-78
2024/04/20 00:08:43;;;;;;;5.20;0.10;;;6.20;99.90;;;;;;5530851;26;20004;-77
2024/04/20 00:11:10;;;;;;;6.57;0.32;;;6.20;99.90;;;;;;5497883;26;20069;-77
2024/04/20 00:13:39;;;;;;;9.52;0.25;;;6.10;99.90;;;;;;5530303;26;19993;-78
2024/04/20 00:16:09;;;;;;;5.85;0.10;;;6.20;99.90;;;;;;5498327;26;19994;-78
2024/04/20 00:18:37;;;;;;;6.97;0.10;;;6.20;99.90;;;;;;5498257;26;20001;-78
2024/04/20 00:21:04;;;;;;;8.32;0.47;;;6.20;99.90;;;;;;5498743;26;20001;-76
2024/04/20 00:23:29;;;;;;;14.60;0.93;;;6.20;99.90;;;;;;5530747;26;19989;-77
2024/04/20 00:25:55;;;;;;;7.75;1.02;;;6.20;99.90;;;;;;5497625;26;20004;-77
2024/04/20 00:28:22;;;;;;;10.20;0.40;;;6.20;99.90;;;;;;5497232;26;20066;-76
2024/04/20 00:31:08;;;;;;;11.52;0.52;;;6.20;99.90;;;;;;5530433;26;20001;-76
2024/04/20 00:33:33;;;;;;;9.00;0.22;;;6.20;99.90;;;;;;5528914;26;20461;-78
2024/04/20 00:35:59;;;;;;;14.13;0.68;;;6.70;99.90;;;;;;5497340;26;20038;-77
2024/04/20 00:38:25;;;;;;;7.10;0.93;;;6.20;99.90;;;;;;5530187;26;20436;-77
2024/04/20 00:40:55;;;;;;;11.40;0.43;;;6.20;99.90;;;;;;5529715;26;19993;-76
2024/04/20 00:43:21;;;;;;;9.23;1.23;;;6.20;99.90;;;;;;5497304;26;19989;-77
2024/04/20 00:45:47;;;;;;;10.75;0.80;;;6.30;99.90;;;;;;5529641;26;19997;-77
2024/04/20 00:48:15;;;;;;;12.02;1.05;;;6.20;99.90;;;;;;5529863;26;19994;-77
2024/04/20 00:50:42;;;;;;;14.50;0.57;;;6.60;99.90;;;;;;5530232;26;20456;-77
2024/04/20 00:53:11;;;;;;;15.63;0.90;;;6.30;99.90;;;;;;5497314;26;20161;-77
2024/04/20 00:55:37;;;;;;;6.10;0.73;;;6.30;99.90;;;;;;5496961;26;19998;-77
2024/04/20 00:58:06;;;;;;;11.45;0.47;;;7.30;99.90;;;;;;5529724;26;19993;-76
2024/04/20 01:00:38;;;;;;;7.55;0.90;;;6.20;99.90;;;;;;5529739;26;19997;-77
2024/04/20 01:03:04;;;;;;;14.75;1.58;;;6.20;99.90;;;;;;5529714;26;20027;-77
2024/04/20 01:05:31;;;;;;;13.10;0.73;;;6.20;99.90;;;;;;5497841;26;19997;-77
2024/04/20 01:07:57;;;;;;;12.02;0.77;;;6.20;99.90;;;;;;5528824;26;20005;-77
2024/04/20 01:10:23;;;;;;;10.20;1.05;;;6.20;99.90;;;;;;5529599;26;19994;-77
2024/04/20 01:12:48;;;;;;;17.08;1.25;;;6.10;99.90;;;;;;5496786;26;19993;-77
2024/04/20 01:15:14;;;;;;;14.85;1.65;;;6.10;99.90;;;;;;5529629;26;19994;-77
2024/04/20 01:17:40;;;;;;;14.95;0.40;;;6.10;99.90;;;;;;5496753;26;19993;-76
2024/04/20 01:20:10;;;;;;;7.53;0.80;;;6.10;99.90;;;;;;5529525;26;20325;-77
2024/04/20 01:22:37;;;;;;;8.35;0.55;;;6.10;99.90;;;;;;5529097;26;19997;-76
2024/04/20 01:25:05;;;;;;;12.45;1.13;;;6.10;99.90;;;;;;5529285;26;20008;-77
2024/04/20 01:27:31;;;;;;;6.40;0.57;;;6.10;99.90;;;;;;5529033;26;20008;-76
2024/04/20 01:29:57;;;;;;;14.57;0.25;;;6.40;99.90;;;;;;5529679;26;19994;-77
2024/04/20 01:32:22;;;;;;;13.77;1.23;;;6.10;99.90;;;;;;5496299;26;19994;-77
2024/04/20 01:34:48;;;;;;;7.95;0.30;;;6.10;99.90;;;;;;5496851;26;20002;-77
2024/04/20 01:37:13;;;;;;;10.85;1.05;;;6.10;99.90;;;;;;5496804;26;19993;-77
2024/04/20 01:39:39;;;;;;;10.35;0.25;;;6.10;99.90;;;;;;5496013;26;20073;-76
2024/04/20 01:42:05;;;;;;;8.38;1.23;;;6.00;99.90;;;;;;5497134;26;20005;-77
2024/04/20 01:44:33;;;;;;;15.00;2.47;;;6.00;99.90;;;;;;5529518;26;20008;-77
2024/04/20 01:47:01;;;;;;;3.78;0.75;;;6.00;99.90;;;;;;5496409;26;19997;-77
2024/04/20 01:49:26;;;;;;;8.57;1.47;;;6.00;99.90;;;;;;5528895;26;19993;-77
2024/04/20 01:51:52;;;;;;;6.60;0.22;;;6.00;99.90;;;;;;5529042;26;20001;-77
2024/04/20 01:54:18;;;;;;;9.23;0.35;;;6.00;99.90;;;;;;5496235;26;20001;-77
2024/04/20 01:56:43;;;;;;;12.75;1.35;;;6.00;99.90;;;;;;5496397;26;19999;-77
2024/04/20 01:59:09;;;;;;;11.48;1.60;;;6.00;99.90;;;;;;5529086;26;19997;-76
2024/04/20 02:01:37;;;;;;;14.35;1.35;;;5.90;99.90;;;;;;5528629;26;20004;-77
2024/04/20 02:04:03;;;;;;;10.20;0.25;;;5.90;99.90;;;;;;5495878;26;20008;-77
2024/04/20 02:06:28;;;;;;;5.70;0.47;;;6.00;99.90;;;;;;5528808;26;19997;-77
2024/04/20 02:08:54;;;;;;;6.88;0.55;;;;;;;;;;5495958;26;20065;-77
2024/04/20 02:11:20;;;;;;;9.73;0.77;;;5.90;99.90;;;;;;5528677;26;20481;-76
2024/04/20 02:13:45;;;;;;;13.13;1.73;;;5.90;99.90;;;;;;5495806;26;20119;-76
2024/04/20 02:16:11;;;;;;;15.98;0.80;;;6.00;99.90;;;;;;5527973;26;20352;-76
2024/04/20 02:18:37;;;;;;;11.23;0.75;;;6.00;99.90;;;;;;5495483;26;19997;-76
2024/04/20 02:21:05;;;;;;;17.05;1.35;;;6.00;99.90;;;;;;5496052;26;20005;-76
2024/04/20 02:23:32;;;;;;;7.95;0.55;;;6.00;99.90;;;;;;5495751;26;20468;-76
2024/04/20 02:25:57;;;;;;;10.35;0.40;;;7.10;99.90;;;;;;5528158;26;20021;-76
2024/04/20 02:28:23;;;;;;;14.43;0.63;;;6.00;99.90;;;;;;5528405;26;20005;-76
2024/04/20 02:30:48;;;;;;;13.85;1.05;;;6.00;99.90;;;;;;5495336;26;20327;-76
2024/04/20 02:33:15;;;;;;;13.27;1.83;;;6.00;99.90;;;;;;5528017;26;19998;-76
2024/04/20 02:35:41;;;;;;;11.90;1.00;;;6.00;99.90;;;;;;5495461;26;19993;-76
2024/04/20 02:38:06;;;;;;;16.75;1.40;;;6.00;99.90;;;;;;5528061;26;20113;-77
2024/04/20 02:40:32;;;;;;;12.43;1.52;;;;;;;;;;5527683;26;20000;-76
2024/04/20 02:42:58;;;;;;;7.63;0.77;;;6.00;99.90;;;;;;5527332;26;20005;-76
2024/04/20 02:45:23;;;;;;;14.70;0.98;;;6.00;99.90;;;;;;5527513;26;19994;-77
2024/04/20 02:47:49;;;;;;;9.63;0.80;;;6.10;99.90;;;;;;5494794;26;19989;-77
2024/04/20 02:50:15;;;;;;;8.65;1.08;;;6.00;99.90;;;;;;5527569;26;20008;-76
2024/04/20 02:52:41;;;;;;;14.63;1.35;;;6.00;99.90;;;;;;5528225;26;20440;-77
2024/04/20 02:55:07;;;;;;;13.45;0.73;;;6.10;99.90;;;;;;5528187;26;20337;-76
2024/04/20 02:57:33;;;;;;;8.85;0.57;;;6.10;99.90;;;;;;5527267;26;20008;-76
2024/04/20 03:00:02;;;;;;;10.27;0.45;;;6.10;99.90;;;;;;5527745;26;20339;-77
2024/04/20 03:02:32;;;;;;;9.45;0.63;;;6.10;99.90;;;;;;5527793;26;20475;-76
2024/04/20 03:04:58;;;;;;;18.13;1.42;;;6.10;99.90;;;;;;5527441;26;19997;-77
2024/04/20 03:07:28;;;;;;;9.25;0.65;;;6.10;99.90;;;;;;5527347;26;20069;-76
2024/04/20 03:09:55;;;;;;;17.08;0.82;;;6.10;99.90;;;;;;5527426;26;19997;-77
2024/04/20 03:12:23;;;;;;;14.85;1.10;;;6.20;99.90;;;;;;5527014;26;20069;-76
2024/04/20 03:14:51;;;;;;;9.65;0.25;;;6.20;99.90;;;;;;5528262;26;20073;-77
2024/04/20 03:17:17;;;;;;;9.23;1.25;;;6.20;99.90;;;;;;5494869;26;19989;-77
2024/04/20 03:19:45;;;;;;;21.58;1.35;;;6.20;99.90;;;;;;5527598;26;20003;-77
2024/04/20 03:22:12;;;;;;;9.10;0.43;;;6.30;99.90;;;;;;5495226;26;19994;-77
2024/04/20 03:24:40;;;;;;;11.15;0.52;;;6.30;99.90;;;;;;5494704;26;20002;-77
2024/04/20 03:27:06;;;;;;;12.93;0.55;;;6.30;99.90;;;;;;5527000;26;20005;-77
2024/04/20 03:29:32;;;;;;;11.02;0.95;;;6.30;99.90;;;;;;5494460;26;20060;-77
2024/04/20 03:31:58;;;;;;;11.23;0.25;;;6.30;99.90;;;;;;5494657;26;19993;-77
2024/04/20 03:34:24;;;;;;;6.57;1.10;;;6.20;99.90;;;;;;5527057;26;20029;-77
2024/04/20 03:36:49;;;;;;;14.20;0.43;;;6.20;99.90;;;;;;5526804;26;20034;-77
2024/04/20 03:39:16;;;;;;;14.02;0.93;;;6.20;99.90;;;;;;5494148;26;20065;-77
2024/04/20 03:41:45;;;;;;;12.05;0.50;;;6.20;99.90;;;;;;5526610;26;20001;-77
2024/04/20 03:44:13;;;;;;;14.90;1.17;;;6.30;99.90;;;;;;5526561;26;19997;-77
2024/04/20 03:46:39;;;;;;;6.82;0.63;;;6.30;99.90;;;;;;5493478;26;19993;-77
2024/04/20 03:49:05;;;;;;;4.70;0.10;;;6.30;99.90;;;;;;5526804;26;19989;-77
2024/04/20 03:51:31;;;;;;;9.18;0.20;;;6.30;99.90;;;;;;5526745;26;20321;-77
2024/04/20 03:53:59;;;;;;;9.32;0.20;;;6.30;99.90;;;;;;5526132;26;19996;-76
2024/04/20 03:56:27;;;;;;;14.95;0.40;;;6.30;99.90;;;;;;5526918;26;20065;-76
2024/04/20 03:58:53;;;;;;;8.45;0.30;;;6.30;99.90;;;;;;5493717;26;20021;-76
2024/04/20 04:01:20;;;;;;;6.57;0.00;;;6.40;99.90;;;;;;5526818;26;19993;-77
2024/04/20 04:03:46;;;;;;;7.60;1.55;;;6.30;99.90;;;;;;5496064;26;20008;-77
2024/04/20 04:06:11;;;;;;;10.18;0.45;;;6.30;99.90;;;;;;5530017;26;19994;-77
2024/04/20 04:08:38;;;;;;;8.65;0.17;;;6.30;99.90;;;;;;5529566;26;20069;-77
2024/04/20 04:11:04;;;;;;;11.57;0.85;;;6.30;99.90;;;;;;5496171;26;20004;-77
2024/04/20 04:13:29;;;;;;;7.22;0.25;;;6.30;99.90;;;;;;5528477;26;19993;-77
2024/04/20 04:15:55;;;;;;;5.60;0.30;;;6.30;99.90;;;;;;5529652;26;20091;-77
2024/04/20 04:18:21;;;;;;;8.20;0.28;;;6.30;99.90;;;;;;5529249;26;19998;-76
2024/04/20 04:20:47;;;;;;;9.43;0.98;;;6.20;99.90;;;;;;5497247;26;20007;-76
2024/04/20 04:23:13;;;;;;;7.07;0.65;;;6.20;99.90;;;;;;5497506;26;19989;-77
2024/04/20 04:25:40;;;;;;;11.13;1.33;;;6.20;99.90;;;;;;5529383;26;20004;-77
2024/04/20 04:28:08;;;;;;;11.15;0.32;;;6.20;99.90;;;;;;5496764;26;19993;-77
2024/04/20 04:30:34;;;;;;;30.77;1.45;;;6.20;99.90;;;;;;5529846;26;20065;-77
2024/04/20 04:33:00;;;;;;;6.95;0.28;;;6.20;99.90;;;;;;5529302;26;20009;-76
2024/04/20 04:35:29;;;;;;;12.77;0.55;;;;;;;;;;5497078;26;20520;-77
2024/04/20 04:37:54;;;;;;;11.98;0.52;;;6.30;99.90;;;;;;5497193;26;20006;-77
2024/04/20 04:40:20;;;;;;;10.40;0.85;;;6.30;99.90;;;;;;5529806;26;20008;-76
2024/04/20 04:42:45;;;;;;;6.40;0.20;;;6.30;99.90;;;;;;5529510;26;19997;-77
2024/04/20 04:45:13;;;;;;;6.63;0.17;;;6.30;99.90;;;;;;5497109;26;19998;-77
2024/04/20 04:47:38;;;;;;;6.25;0.08;;;6.30;99.90;;;;;;5496594;26;19997;-76
2024/04/20 04:50:04;;;;;;;5.93;0.43;;;6.30;99.90;;;;;;5497024;26;20005;-76
2024/04/20 04:52:31;;;;;;;10.52;0.52;;;6.30;99.90;;;;;;5529387;26;20005;-76
2024/04/20 04:54:57;;;;;;;5.20;0.65;;;6.20;99.90;;;;;;5496490;26;20001;-77
2024/04/20 04:57:22;;;;;;;8.20;0.10;;;6.30;99.90;;;;;;5496536;26;19989;-76
2024/04/20 04:59:48;;;;;;;7.15;1.25;;;6.30;99.90;;;;;;5529478;26;19993;-77
2024/04/20 05:02:13;;;;;;;11.75;1.40;;;6.30;99.90;;;;;;5529357;26;20428;-77
2024/04/20 05:04:41;;;;;;;8.85;0.10;;;6.30;99.90;;;;;;5496618;26;20329;-77
2024/04/20 05:07:08;;;;;;;7.07;0.60;;;7.60;99.90;;;;;;5529090;26;20102;-77
2024/04/20 05:09:34;;;;;;;5.70;0.57;;;6.30;99.90;;;;;;5529240;26;19993;-79
2024/04/20 05:12:00;;;;;;;5.80;0.30;;;6.30;99.90;;;;;;5529465;26;20441;-78
2024/04/20 05:14:25;;;;;;;7.60;0.32;;;6.30;99.90;;;;;;5528517;26;20340;-78
2024/04/20 05:16:51;;;;;;;15.82;0.55;;;6.40;99.90;;;;;;5530170;26;19994;-78
2024/04/20 05:19:17;;;;;;;8.85;0.52;;;6.40;99.90;;;;;;5497051;26;20011;-78
2024/04/20 05:21:42;;;;;;;6.25;0.15;;;6.40;99.90;;;;;;5496951;26;19993;-78
2024/04/20 05:24:08;;;;;;;8.07;0.00;;;6.40;99.90;;;;;;5497000;26;20003;-77
2024/04/20 05:26:33;;;;;;;9.82;0.00;;;6.50;99.90;;;;;;5530307;26;19997;-78
2024/04/20 05:28:59;;;;;;;13.32;0.95;;;6.50;99.90;;;;;;5529967;26;20517;-78
2024/04/20 05:31:25;;;;;;;10.02;1.08;;;6.50;99.90;;;;;;5530484;26;20464;-78
2024/04/20 05:33:51;;;;;;;5.90;0.43;;;6.60;99.90;;;;;;5529691;26;20009;-79
2024/04/20 05:36:16;;;;;;;10.48;0.65;;;6.60;99.90;;;;;;5497114;26;19989;-78
2024/04/20 05:38:42;;;;;;;5.13;0.38;;;6.60;99.90;;;;;;5529380;26;20073;-78
2024/04/20 05:41:08;;;;;;;6.00;0.28;;;7.10;99.90;;;;;;5529411;26;19998;-78
2024/04/20 05:43:34;;;;;;;9.43;0.55;;;6.70;99.90;;;;;;5529307;26;19997;-79
2024/04/20 05:45:59;;;;;;;10.68;0.43;;;6.70;99.90;;;;;;5497825;26;20004;-78
2024/04/20 05:48:29;;;;;;;7.03;0.30;;;8.00;99.90;;;;;;5530801;26;20008;-78
2024/04/20 05:50:57;;;;;;;11.50;1.75;;;6.80;99.90;;;;;;5497600;26;20325;-78
2024/04/20 05:53:23;;;;;;;10.30;0.60;;;6.80;99.90;;;;;;5496955;26;20009;-79
2024/04/20 05:55:49;;;;;;;10.23;1.05;;;6.80;99.90;;;;;;5496750;26;19993;-78
2024/04/20 05:58:14;;;;;;;7.93;0.10;;;6.90;99.90;;;;;;5529922;26;19997;-78
2024/04/20 06:00:41;;;;;;;6.90;1.45;;;6.90;99.90;;;;;;5496287;26;20005;-78
2024/04/20 06:03:07;;;;;;;8.25;0.45;;;6.90;99.90;;;;;;5529566;26;20005;-77
2024/04/20 06:05:33;;;;;;;9.18;0.68;;;6.90;99.90;;;;;;5529287;26;19997;-78
2024/04/20 06:07:59;;;;;;;13.85;0.32;;;7.00;99.90;;;;;;5496177;26;20022;-77
2024/04/20 06:10:24;;;;;;;4.13;0.50;;;6.90;99.90;;;;;;5529755;26;20005;-77
2024/04/20 06:12:50;;;;;;;5.32;0.05;;;7.00;99.90;;;;;;5528965;26;20009;-78
2024/04/20 06:15:15;;;;;;;8.77;0.08;;;7.00;99.90;;;;;;5528974;26;19997;-78
2024/04/20 06:17:41;;;;;;;5.95;0.43;;;7.10;99.90;;;;;;5529223;26;20460;-78
2024/04/20 06:20:08;;;;;;;2.35;0.00;;;7.20;99.90;;;;;;5496921;26;19994;-78
2024/04/20 06:22:33;;;;;;;4.47;0.38;;;7.20;99.90;;;;;;5529559;26;20004;-77
2024/04/20 06:25:01;;;;;;;4.90;0.08;;;7.20;99.90;;;;;;5529315;26;19998;-78
2024/04/20 06:27:27;;;;;;;9.20;0.30;;;7.30;99.90;;;;;;5495610;26;20001;-78
2024/04/20 06:29:53;;;;;;;7.72;0.20;;;7.30;99.90;;;;;;5496503;26;20004;-78
2024/04/20 06:32:18;;;;;;;6.68;0.13;;;8.30;99.90;;;;;;5496645;26;20038;-78
2024/04/20 06:34:45;;;;;;;10.23;0.90;;;7.50;99.90;;;;;;5529733;26;19998;-79
2024/04/20 06:37:11;;;;;;;5.07;0.22;;;7.50;99.90;;;;;;5528485;26;20002;-78
2024/04/20 06:39:37;;;;;;;2.78;0.20;;;7.50;99.90;;;;;;5529319;26;19997;-78
2024/04/20 06:42:03;;;;;;;2.67;0.10;;;8.00;99.90;;;;;;5529013;26;19997;-79
2024/04/20 06:44:28;;;;;;;5.88;0.35;;;7.60;99.90;;;;;;5529351;26;20039;-78
2024/04/20 06:46:55;;;;;;;9.05;0.38;;;7.60;99.90;;;;;;5495988;26;20451;-79
2024/04/20 06:49:21;;;;;;;5.47;0.28;;;7.60;99.90;;;;;;5528428;26;19993;-78
2024/04/20 06:51:47;;;;;;;11.70;0.52;;;7.60;99.90;;;;;;5528586;26;20452;-78
2024/04/20 06:54:13;;;;;;;7.78;0.52;;;7.60;99.90;;;;;;5495779;26;19997;-77
2024/04/20 06:56:38;;;;;;;5.30;0.43;;;7.60;99.90;;;;;;5496222;26;20008;-78
2024/04/20 06:59:05;;;;;;;6.57;0.08;;;7.60;99.90;;;;;;5528808;26;20048;-79
2024/04/20 07:01:31;;;;;;;10.57;0.65;;;7.70;99.90;;;;;;5528526;26;20009;-79
2024/04/20 07:03:56;;;;;;;8.38;0.40;;;7.80;99.90;;;;;;5495888;26;20012;-79
2024/04/20 07:06:23;;;;;;;7.22;0.52;;;7.80;99.90;;;;;;5495877;26;20094;-79
2024/04/20 07:08:49;;;;;;;5.45;0.25;;;7.90;99.90;;;;;;5528228;26;20066;-79
2024/04/20 07:11:16;;;;;;;2.60;0.63;;;9.10;99.90;;;;;;5496074;26;19997;-79
2024/04/20 07:13:42;;;;;;;8.68;0.50;;;8.00;99.90;;;;;;5527713;26;19997;-78
2024/04/20 07:16:08;;;;;;;10.65;0.75;;;8.10;99.90;;;;;;5527967;26;20010;-78
2024/04/20 07:18:34;;;;;;;4.68;0.47;;;8.10;99.90;;;;;;5495242;26;20067;-79
2024/04/20 07:21:07;;;;;;;6.88;0.10;;;8.20;99.90;;;;;;5527859;26;19993;-78
2024/04/20 07:23:33;;;;;;;2.78;0.10;;;8.30;99.90;;;;;;5495301;26;19994;-79
2024/04/20 07:26:03;;;;;;;6.15;0.00;;;8.40;99.90;;;;;;5527715;26;19993;-79
2024/04/20 07:28:30;;;;;;;3.10;0.00;;;8.50;99.90;;;;;;5527209;26;20002;-78
2024/04/20 07:30:59;;;;;;;2.95;0.22;;;8.80;99.90;;;;;;5527988;26;20067;-79
2024/04/20 07:33:25;;;;;;;4.93;0.17;;;8.60;99.90;;;;;;5496599;26;19994;-80
2024/04/20 07:35:51;;;;;;;1.35;0.30;;;8.70;99.90;;;;;;5496792;26;20004;-79
2024/04/20 07:38:18;;;;;;;4.22;0.10;;;8.70;99.90;;;;;;5497376;26;19997;-79
2024/04/20 07:40:44;;;;;;;3.60;0.50;;;9.00;99.90;;;;;;5499833;26;19998;-79
2024/04/20 07:43:09;;;;;;;9.05;0.10;;;9.00;99.90;;;;;;5499115;26;20004;-80
2024/04/20 07:45:35;;;;;;;7.00;0.05;;;9.00;99.90;;;;;;5531823;26;19998;-79
2024/04/20 07:48:01;;;;;;;5.60;0.00;;;10.30;99.90;;;;;;5498419;26;19993;-79
2024/04/20 07:50:27;;;;;;;5.18;0.10;;;9.30;99.90;;;;;;5531302;26;20042;-78
2024/04/20 07:52:53;;;;;;;4.97;0.00;;;9.30;99.90;;;;;;5531334;26;19994;-78
2024/04/20 07:55:18;;;;;;;4.13;0.10;;;9.70;99.90;;;;;;5498782;26;19994;-79
2024/04/20 07:57:46;;;;;;;3.45;0.10;;;9.70;99.90;;;;;;5531185;26;20069;-78
2024/04/20 08:00:13;;;;;;;7.38;0.43;;;10.10;99.90;;;;;;5498506;26;19989;-78
2024/04/20 08:02:39;;;;;;;7.28;0.45;;;10.50;99.90;;;;;;5498987;26;20096;-78
2024/04/20 08:05:07;;;;;;;4.13;0.47;;;10.60;99.90;;;;;;5499196;26;19997;-79
2024/04/20 08:07:33;;;;;;;2.80;0.00;;;10.80;99.90;;;;;;5530451;26;19998;-79
2024/04/20 08:09:59;;;;;;;7.43;0.35;;;10.70;99.90;;;;;;5531873;26;20061;-78
2024/04/20 08:12:25;;;;;;;2.92;0.20;;;10.60;99.90;;;;;;5531511;26;20005;-78
2024/04/20 08:14:50;;;;;;;8.63;0.65;;;10.20;99.90;;;;;;5498817;26;20009;-78
2024/04/20 08:17:16;;;;;;;9.30;0.60;;;9.80;99.90;;;;;;5498811;26;20000;-79
2024/04/20 08:19:42;;;;;;;5.68;0.30;;;9.70;99.90;;;;;;5497834;26;20005;-79
2024/04/20 08:22:07;;;;;;;7.57;0.52;;;9.80;99.90;;;;;;5497498;26;19997;-79
2024/04/20 08:24:33;;;;;;;7.20;0.15;;;9.80;99.90;;;;;;5497931;26;20001;-79
2024/04/20 08:26:59;;;;;;;9.40;0.00;;;10.40;99.90;;;;;;5497686;26;20407;-79
2024/04/20 08:29:27;;;;;;;4.82;0.28;;;10.40;99.90;;;;;;5497856;26;20004;-79
2024/04/20 08:31:54;;;;;;;2.30;0.15;;;10.50;99.90;;;;;;5497915;26;20008;-79
2024/04/20 08:34:19;;;;;;;6.72;0.28;;;10.60;99.90;;;;;;5498429;26;19994;-79
2024/04/20 08:36:45;;;;;;;12.82;0.22;;;10.60;99.90;;;;;;5497495;26;19997;-79
2024/04/20 08:39:12;;;;;;;5.03;0.00;;;10.60;99.90;;;;;;5497795;26;20009;-79
2024/04/20 08:41:54;;;;;;;3.75;0.03;;;10.50;99.90;;;;;;5497924;26;20004;-79
2024/04/20 08:44:20;;;;;;;6.53;0.40;;;10.50;99.90;;;;;;5529958;26;20008;-79
2024/04/20 08:46:51;;;;;;;6.47;0.10;;;10.60;99.90;;;;;;5529785;26;20436;-80
2024/04/20 08:49:20;;;;;;;8.63;0.10;;;10.60;99.90;;;;;;5529248;26;20009;-80
2024/04/20 08:51:48;;;;;;;3.40;0.20;;;10.70;99.90;;;;;;5529892;26;20001;-79
2024/04/20 08:54:16;;;;;;;2.17;0.43;;;10.70;99.90;;;;;;5497416;26;20325;-79
2024/04/20 08:56:43;;;;;;;4.70;0.30;;;10.50;99.90;;;;;;5529716;26;20005;-79
2024/04/20 08:59:10;;;;;;;4.72;0.32;;;10.50;99.90;;;;;;5498145;26;20368;-79
2024/04/20 09:01:36;;;;;;;4.82;0.30;;;10.40;99.90;;;;;;5530139;26;20005;-80
2024/04/20 09:04:06;;;;;;;7.85;0.43;;;10.40;99.90;;;;;;5496913;26;20496;-79
2024/04/20 09:06:35;;;;;;;7.32;0.88;;;10.30;99.90;;;;;;5497820;26;19989;-79
2024/04/20 09:09:03;;;;;;;1.25;0.00;;;;;;;;;;5497076;26;20065;-79
2024/04/20 09:11:30;;;;;;;6.75;0.32;;;10.30;99.90;;;;;;5497212;26;20062;-79
2024/04/20 09:13:56;;;;;;;5.40;0.28;;;;;;;;;;5529890;26;20006;-80
2024/04/20 09:16:22;;;;;;;6.53;0.00;;;10.60;99.90;;;;;;5529936;26;19996;-79
2024/04/20 09:18:50;;;;;;;6.05;0.20;;;10.90;99.90;;;;;;5497967;26;19998;-80
2024/04/20 09:21:16;;;;;;;12.40;0.63;;;11.00;99.90;;;;;;5497738;26;19993;-79
2024/04/20 09:23:43;;;;;;;4.75;0.32;;;11.10;99.90;;;;;;5497360;26;19994;-79
2024/04/20 09:26:09;;;;;;;2.80;0.00;;;11.10;99.90;;;;;;5496759;26;19997;-79
2024/04/20 09:28:39;;;;;;;6.85;0.30;;;11.10;99.90;;;;;;5529916;26;20066;-80
2024/04/20 09:31:05;;;;;;;7.43;0.50;;;11.10;99.90;;;;;;5497681;26;19990;-80
2024/04/20 09:33:30;;;;;;;2.90;0.13;;;11.10;99.90;;;;;;5532032;26;20003;-79
2024/04/20 09:35:56;;;;;;;2.38;0.00;;;11.10;99.90;;;;;;5529981;26;19997;-78
2024/04/20 09:38:23;;;;;;;6.75;0.75;;;11.00;99.90;;;;;;5496965;26;19990;-78
2024/04/20 09:40:53;;;;;;;2.13;0.10;;;11.10;99.90;;;;;;5497440;26;19997;-78
2024/04/20 09:43:22;;;;;;;7.32;0.10;;;11.40;99.90;;;;;;5528778;26;20069;-78
2024/04/20 09:45:50;;;;;;;6.93;0.45;;;11.40;99.90;;;;;;5530175;26;20008;-78
2024/04/20 09:48:23;;;;;;;6.27;0.00;;;11.30;99.90;;;;;;5497144;26;20069;-78
2024/04/20 09:50:57;;;;;;;4.90;0.08;;;11.00;99.90;;;;;;5497589;26;20697;-78
2024/04/20 09:53:33;;;;;;;5.97;0.20;;;10.90;99.90;;;;;;5496873;26;20005;-79
2024/04/20 09:56:02;;;;;;;3.92;0.00;;;10.90;99.90;;;;;;5497007;26;20006;-78
2024/04/20 09:58:29;;;;;;;3.75;0.00;;;11.10;99.90;;;;;;5496452;26;20001;-78
2024/04/20 10:00:56;;;;;;;3.47;0.00;;;11.60;99.90;;;;;;5496913;26;20006;-78
2024/04/20 10:03:23;;;;;;;3.78;0.00;;;11.60;99.90;;;;;;5497113;26;20080;-79
2024/04/20 10:05:50;;;;;;;5.07;0.00;;;11.80;99.90;;;;;;5529438;26;19993;-79
2024/04/20 10:08:18;;;;;;;2.85;0.52;;;12.00;99.90;;;;;;5495884;26;19993;-79
2024/04/20 10:10:46;;;;;;;4.97;0.52;;;12.10;99.90;;;;;;5528714;26;19993;-78
2024/04/20 10:13:14;;;;;;;2.83;0.45;;;12.00;99.90;;;;;;5528803;26;19997;-78
2024/04/20 10:15:43;;;;;;;4.57;0.55;;;12.30;99.90;;;;;;5529236;26;19993;-78
2024/04/20 10:18:09;;;;;;;3.97;0.10;;;12.60;99.90;;;;;;5496294;26;20028;-78
2024/04/20 10:20:37;;;;;;;6.70;0.20;;;12.60;99.90;;;;;;5496684;26;20003;-78
2024/04/20 10:23:22;;;;;;;8.40;0.20;;;12.10;99.90;;;;;;5496818;26;19996;-79
2024/04/20 10:25:55;;;;;;;4.28;0.00;;;11.10;99.90;;;;;;5529575;26;19994;-78
2024/04/20 10:28:28;;;;;;;5.70;1.55;;;9.90;99.90;;;;;;5496899;26;20061;-79
2024/04/20 10:30:56;;;;;;;6.80;0.52;;;9.80;99.90;;;;;;5497142;26;20008;-80
2024/04/20 10:33:43;;;;;;;2.92;0.25;;;9.40;99.90;;;;;;5498322;26;20445;-80
2024/04/20 10:36:12;;;;;;;5.38;0.10;;;8.90;99.90;;;;;;5498258;26;20002;-80
2024/04/20 10:38:38;;;;;;;7.45;0.85;;;;;;;;;;5497622;26;19989;-79
2024/04/20 10:41:12;;;;;;;1.65;0.00;;;8.80;99.90;;;;;;5531039;26;20009;-80
2024/04/20 10:43:38;;;;;;;4.95;0.10;;;8.80;99.90;;;;;;5496003;26;20004;-77
2024/04/20 10:46:08;;;;;;;2.22;0.10;;;8.70;99.90;;;;;;5495659;26;20004;-77
2024/04/20 10:48:40;;;;;;;3.97;0.00;;;8.90;99.90;;;;;;5495434;26;20001;-78
2024/04/20 10:51:16;;;;;;;1.17;0.00;;;9.30;99.90;;;;;;5528262;26;20066;-77
2024/04/20 10:53:42;;;;;;;3.08;0.52;;;9.70;99.90;;;;;;5495815;26;19997;-77
2024/04/20 10:56:08;;;;;;;0.90;0.10;;;10.20;99.90;;;;;;5528037;26;20448;-77
2024/04/20 10:58:41;;;;;;;1.60;0.10;;;10.60;99.90;;;;;;5527049;26;19993;-76
2024/04/20 11:01:09;;;;;;;4.55;0.10;;;11.20;99.90;;;;;;5527234;26;20460;-76
2024/04/20 11:03:35;;;;;;;0.93;0.47;;;11.70;99.90;;;;;;5494354;26;19997;-75
2024/04/20 11:06:01;;;;;;;2.85;0.00;;;12.00;99.90;;;;;;5527074;26;20038;-76
2024/04/20 11:08:28;;;;;;;2.55;0.10;;;11.80;99.90;;;;;;5526917;26;19997;-75
2024/04/20 11:11:02;;;;;;;4.45;0.28;;;;;;;;;;5527020;26;19993;-76
2024/04/20 11:13:29;;;;;;;8.82;0.15;;;10.90;99.90;;;;;;5497156;26;20082;-78
2024/04/20 11:15:55;;;;;;;1.67;0.52;;;10.50;99.90;;;;;;5530467;26;20038;-76
2024/04/20 11:18:21;;;;;;;5.80;0.17;;;10.20;99.90;;;;;;5530468;26;20009;-76
2024/04/20 11:20:47;;;;;;;2.90;0.88;;;10.20;99.90;;;;;;5530422;26;20009;-76
2024/04/20 11:23:15;;;;;;;5.15;0.90;;;10.40;99.90;;;;;;5530578;26;20005;-76
2024/04/20 11:25:55;;;;;;;4.03;0.10;;;10.80;99.90;;;;;;5497360;26;20001;-77
2024/04/20 11:28:22;;;;;;;5.93;0.13;;;10.90;99.90;;;;;;5529916;26;20009;-76
2024/04/20 11:30:48;;;;;;;4.35;0.15;;;11.40;99.90;;;;;;5529613;26;20029;-76
2024/04/20 11:33:14;;;;;;;4.93;0.40;;;11.40;99.90;;;;;;5529813;26;20004;-77
2024/04/20 11:35:47;;;;;;;3.90;0.10;;;11.70;99.90;;;;;;5530318;26;20061;-76
2024/04/20 11:38:14;;;;;;;12.85;0.00;;;12.20;99.90;;;;;;5530004;26;19994;-76
2024/04/20 11:40:51;;;;;;;4.38;0.35;;;12.60;99.90;;;;;;5497153;26;19990;-76
2024/04/20 11:43:23;;;;;;;6.50;0.10;;;12.90;99.90;;;;;;5530191;26;19997;-76
2024/04/20 11:45:57;;;;;;;2.80;0.00;;;12.80;99.90;;;;;;5529984;26;20005;-76
2024/04/20 11:48:29;;;;;;;3.65;0.38;;;12.70;99.90;;;;;;5497299;26;19997;-76
2024/04/20 11:51:07;;;;;;;3.50;0.43;;;12.50;99.90;;;;;;5529467;26;20023;-76
2024/04/20 11:56:21;;;;;;;3.70;0.00;;;12.20;99.90;;;;;;5530907;26;20009;-76
2024/04/20 11:58:48;;;;;;;8.55;0.60;;;12.80;99.90;;;;;;5529311;26;20006;-76
2024/04/20 12:01:14;;;;;;;6.07;0.25;;;12.80;99.90;;;;;;5529640;26;20001;-76
2024/04/20 12:03:39;;;;;;;8.02;0.77;;;13.00;99.90;;;;;;5496666;26;20015;-76
2024/04/20 12:06:09;;;;;;;6.10;0.80;;;13.10;99.90;;;;;;5496548;26;20005;-76
2024/04/20 12:08:44;;;;;;;4.22;0.95;;;13.20;99.90;;;;;;5529641;26;20005;-76
2024/04/20 12:11:10;;;;;;;1.73;0.08;;;12.90;99.90;;;;;;5497100;26;20329;-75
2024/04/20 12:13:36;;;;;;;3.53;0.00;;;12.60;99.90;;;;;;5496844;26;19989;-76
2024/04/20 12:16:04;;;;;;;1.60;0.20;;;12.60;99.90;;;;;;5529240;26;20340;-76
2024/04/20 12:18:29;;;;;;;2.75;0.38;;;12.50;99.90;;;;;;5529551;26;20009;-76
2024/04/20 12:20:55;;;;;;;6.07;0.32;;;13.10;99.90;;;;;;5529336;26;20001;-76
2024/04/20 12:23:22;;;;;;;4.90;0.00;;;13.30;99.90;;;;;;5496403;26;19997;-76
2024/04/20 12:25:48;;;;;;;3.70;0.00;;;13.80;99.90;;;;;;5496643;26;19993;-77
2024/04/20 12:28:18;;;;;;;2.90;0.28;;;13.70;99.90;;;;;;5496289;26;20005;-77
2024/04/20 12:30:44;;;;;;;4.38;1.08;;;13.40;99.90;;;;;;5529348;26;20322;-76
2024/04/20 12:33:10;;;;;;;2.80;0.00;;;13.60;99.90;;;;;;5529284;26;20008;-76
2024/04/20 12:35:36;;;;;;;7.43;0.32;;;13.70;99.90;;;;;;5529435;26;19997;-76
2024/04/20 12:38:03;;;;;;;4.22;0.40;;;13.80;99.90;;;;;;5496303;26;20037;-76
2024/04/20 12:40:28;;;;;;;3.10;0.10;;;13.90;99.90;;;;;;5528938;26;20022;-76
2024/04/20 12:42:54;;;;;;;5.05;0.17;;;13.90;99.90;;;;;;5496517;26;19994;-76
2024/04/20 12:45:22;;;;;;;3.92;0.50;;;14.20;99.90;;;;;;5529259;26;19993;-76
2024/04/20 12:47:49;;;;;;;3.15;0.00;;;14.40;99.90;;;;;;5529073;26;20065;-77
2024/04/20 12:50:18;;;;;;;3.70;0.00;;;14.30;99.90;;;;;;5529045;26;20004;-76
2024/04/20 12:52:44;;;;;;;2.35;0.00;;;13.90;99.90;;;;;;5528477;26;19998;-76
2024/04/20 12:55:10;;;;;;;2.10;0.00;;;13.30;99.90;;;;;;5528717;26;20002;-76